Time;durP1;ratioP1;P1;durP2;ratioP2;P2;SDS_P1;SDS_P2;PMS_P1;PMS_P2;Temp;Humidity;BMP_temperature;BMP_pressure;BME280_temperature;BME280_humidity;BME280_pressure;Samples;Min_cycle;Max_cycle;Signal;HPM_P1;HPM_P2
2024/04/05 00:01:45;;;;;;;14.70;3.08;;;11.60;99.90;;;14.97;100.00;100200.38;4920535;29;20484;-75
2024/04/05 00:04:11;;;;;;;18.15;3.15;;;11.60;99.90;;;15.15;100.00;100199.19;4914016;29;20039;-75
2024/04/05 00:06:37;;;;;;;13.98;3.33;;;11.60;99.90;;;15.02;100.00;100200.41;4925535;29;20047;-77
2024/04/05 00:09:03;;;;;;;17.17;3.20;;;11.60;99.90;;;14.90;100.00;100208.78;4919113;29;20036;-75
2024/04/05 00:11:29;;;;;;;17.58;3.17;;;11.60;99.90;;;15.30;100.00;100209.50;4921182;29;20509;-77
2024/04/05 00:13:55;;;;;;;20.08;3.78;;;11.60;99.90;;;15.21;100.00;100213.81;4916290;29;20040;-77
2024/04/05 00:16:21;;;;;;;17.90;3.33;;;11.50;99.90;;;15.17;100.00;100210.75;4907012;29;20453;-76
2024/04/05 00:18:47;;;;;;;20.30;4.25;;;11.50;99.90;;;15.06;100.00;100214.47;4911081;29;20040;-76
2024/04/05 00:21:13;;;;;;;20.25;3.47;;;11.50;99.90;;;15.09;100.00;100216.69;4912016;29;20405;-77
2024/04/05 00:23:38;;;;;;;21.45;3.03;;;11.40;99.90;;;14.80;100.00;100212.25;4909518;29;20047;-77
2024/04/05 00:26:05;;;;;;;17.55;4.00;;;11.40;99.90;;;14.95;100.00;100219.84;4914129;29;20096;-77
2024/04/05 00:28:35;;;;;;;17.77;3.60;;;11.40;99.90;;;14.86;100.00;100235.13;4915665;29;20036;-76
2024/04/05 00:31:01;;;;;;;16.92;3.47;;;11.30;99.90;;;14.89;100.00;100233.78;4916574;29;20373;-77
2024/04/05 00:33:27;;;;;;;18.73;2.80;;;11.20;99.90;;;14.85;100.00;100227.13;4915499;29;20032;-78
2024/04/05 00:35:56;;;;;;;20.73;3.15;;;11.20;99.90;;;14.76;100.00;100235.81;4915284;29;20044;-76
2024/04/05 00:38:25;;;;;;;17.63;2.83;;;11.20;99.90;;;14.82;100.00;100239.47;4893931;29;21822;-76
2024/04/05 00:40:52;;;;;;;15.02;3.05;;;11.00;99.90;;;14.57;100.00;100235.25;4917123;29;20568;-76
2024/04/05 00:43:18;;;;;;;17.58;3.70;;;11.00;99.90;;;14.59;100.00;100243.25;4915713;29;20073;-78
2024/04/05 00:45:47;;;;;;;16.60;3.70;;;11.00;99.90;;;14.86;100.00;100237.03;4920138;29;20043;-76
2024/04/05 00:48:19;;;;;;;17.10;3.58;;;10.90;99.90;;;14.60;100.00;100244.91;4917857;29;20038;-76
2024/04/05 00:50:46;;;;;;;14.15;3.13;;;10.90;99.90;;;14.35;100.00;100237.97;4921805;29;20044;-77
2024/04/05 00:53:33;;;;;;;16.20;3.55;;;10.90;99.90;;;14.47;100.00;100233.19;4915553;29;20401;-77
2024/04/05 00:56:01;;;;;;;14.43;3.10;;;10.80;99.90;;;14.51;100.00;100242.59;4909610;29;20105;-77
2024/04/05 00:58:27;;;;;;;21.10;4.10;;;10.80;99.90;;;14.46;100.00;100233.47;4913042;29;20040;-77
2024/04/05 01:00:54;;;;;;;14.77;4.05;;;10.70;99.90;;;14.22;100.00;100231.75;4911794;29;20090;-77
2024/04/05 01:03:20;;;;;;;15.57;3.33;;;10.70;99.90;;;14.20;100.00;100242.13;4911860;29;20035;-77
2024/04/05 01:05:48;;;;;;;13.95;3.13;;;10.70;99.90;;;14.35;100.00;100244.28;4915464;29;20046;-77
2024/04/05 01:08:18;;;;;;;17.90;3.60;;;10.70;99.90;;;14.27;100.00;100238.38;4920102;29;20475;-77
2024/04/05 01:10:46;;;;;;;17.17;3.78;;;10.60;99.90;;;14.12;100.00;100239.84;4920831;29;20051;-78
2024/04/05 01:13:13;;;;;;;19.38;3.47;;;10.60;99.90;;;14.37;100.00;100246.78;4923589;29;20122;-77
2024/04/05 01:15:40;;;;;;;18.77;3.63;;;10.60;99.90;;;14.33;100.00;100251.13;4923982;29;20071;-77
2024/04/05 01:18:10;;;;;;;24.90;4.00;;;10.50;99.90;;;14.41;100.00;100252.59;4901363;29;20044;-76
2024/04/05 01:20:38;;;;;;;17.38;3.35;;;10.40;99.90;;;14.36;100.00;100253.34;4928234;29;20047;-75
2024/04/05 01:23:06;;;;;;;15.60;3.63;;;10.30;99.90;;;14.11;100.00;100249.13;4918351;29;20040;-76
2024/04/05 01:25:33;;;;;;;12.52;3.13;;;10.40;99.90;;;14.08;100.00;100242.22;4918508;29;20040;-78
2024/04/05 01:28:13;;;;;;;18.33;3.25;;;10.30;99.90;;;14.12;100.00;100259.03;4913820;29;20067;-77
2024/04/05 01:30:39;;;;;;;18.17;3.65;;;10.30;99.90;;;13.99;100.00;100235.50;4912452;29;20044;-76
2024/04/05 01:33:05;;;;;;;15.73;3.75;;;10.40;99.90;;;14.03;100.00;100252.28;4913112;29;20036;-77
2024/04/05 01:35:31;;;;;;;18.65;4.05;;;10.40;99.90;;;14.18;100.00;100240.72;4899240;29;20512;-76
2024/04/05 01:38:00;;;;;;;15.15;3.22;;;10.30;99.90;;;14.20;100.00;100239.41;4914155;29;20115;-77
2024/04/05 01:40:26;;;;;;;17.73;3.78;;;10.30;99.90;;;14.04;100.00;100227.38;4912237;29;20625;-76
2024/04/05 01:42:53;;;;;;;19.23;3.50;;;10.30;99.90;;;14.03;100.00;100230.34;4917718;29;20048;-75
2024/04/05 01:45:19;;;;;;;16.63;2.90;;;10.30;99.90;;;13.72;100.00;100238.06;4909379;29;20036;-76
2024/04/05 01:47:45;;;;;;;14.25;3.33;;;10.20;99.90;;;13.83;100.00;100231.69;4916684;29;20179;-76
2024/04/05 01:50:14;;;;;;;17.35;3.20;;;10.20;99.90;;;13.93;100.00;100237.34;4923057;29;20102;-75
2024/04/05 01:52:40;;;;;;;21.10;3.30;;;10.20;99.90;;;13.83;100.00;100239.91;4909202;29;20086;-76
2024/04/05 01:55:06;;;;;;;15.63;3.08;;;10.20;99.90;;;14.05;100.00;100241.88;4922677;29;20475;-77
2024/04/05 01:57:37;;;;;;;17.50;3.15;;;10.20;99.90;;;13.87;100.00;100238.34;4926666;28;20488;-76
2024/04/05 02:00:08;;;;;;;19.05;3.35;;;10.30;99.90;;;14.07;100.00;100239.75;4916013;29;20040;-76
2024/04/05 02:02:42;;;;;;;12.23;2.67;;;10.20;99.90;;;14.02;100.00;100234.16;4912381;29;20052;-75
2024/04/05 02:05:08;;;;;;;15.77;3.35;;;10.20;99.90;;;13.98;100.00;100228.38;4909078;29;20381;-76
2024/04/05 02:07:33;;;;;;;15.27;2.75;;;10.20;99.90;;;14.01;100.00;100232.50;4937323;29;20138;-76
2024/04/05 02:09:59;;;;;;;14.13;2.90;;;10.10;99.90;;;14.05;100.00;100229.03;4915886;29;20051;-75
2024/04/05 02:12:28;;;;;;;15.80;2.75;;;10.10;99.90;;;13.91;100.00;100241.38;4920417;29;20091;-76
2024/04/05 02:14:55;;;;;;;16.13;3.45;;;10.10;99.90;;;13.66;100.00;100243.47;4921679;29;20075;-76
2024/04/05 02:17:21;;;;;;;16.73;3.20;;;10.10;99.90;;;14.03;100.00;100230.34;4925074;29;20058;-77
2024/04/05 02:19:47;;;;;;;15.63;3.47;;;10.10;99.90;;;14.03;99.53;100231.19;4922433;29;20492;-78
2024/04/05 02:22:12;;;;;;;18.63;3.22;;;10.00;99.90;;;13.81;100.00;100225.63;4913264;29;20496;-77
2024/04/05 02:24:38;;;;;;;17.42;3.35;;;10.00;99.90;;;13.42;100.00;100222.72;4911550;29;20044;-77
2024/04/05 02:27:04;;;;;;;15.68;2.63;;;10.00;99.90;;;13.85;100.00;100240.50;4917570;29;20381;-77
2024/04/05 02:29:32;;;;;;;16.65;2.72;;;10.00;99.90;;;14.07;98.30;100237.00;4914443;29;20056;-77
2024/04/05 02:31:58;;;;;;;16.02;3.42;;;10.00;99.90;;;13.60;99.81;100232.66;4919687;29;20032;-77
2024/04/05 02:34:24;;;;;;;18.08;2.60;;;10.00;99.90;;;13.66;100.00;100239.91;4931653;29;20131;-76
2024/04/05 02:36:51;;;;;;;13.32;2.20;;;10.10;99.90;;;13.64;100.00;100234.66;4922903;29;20040;-76
2024/04/05 02:39:18;;;;;;;17.38;3.42;;;;;;;13.73;100.00;100235.09;4934282;29;20036;-76
2024/04/05 02:41:47;;;;;;;17.90;3.25;;;10.30;99.90;;;13.95;98.34;100224.19;4930496;29;20159;-76
2024/04/05 02:44:14;;;;;;;16.73;3.10;;;10.30;99.90;;;13.92;99.45;100248.53;4931978;29;20036;-77
2024/04/05 02:46:42;;;;;;;16.48;2.97;;;10.30;99.90;;;14.18;96.45;100238.81;4921849;29;20048;-78
2024/04/05 02:49:09;;;;;;;15.45;2.63;;;10.40;99.90;;;14.10;95.76;100239.25;4919927;29;20478;-75
2024/04/05 02:51:35;;;;;;;13.98;2.60;;;10.40;99.90;;;14.04;96.12;100242.97;4927971;29;20075;-76
2024/04/05 02:54:02;;;;;;;12.98;2.55;;;10.50;99.90;;;14.12;95.89;100249.97;4940154;29;20116;-76
2024/04/05 02:56:28;;;;;;;17.40;2.50;;;10.50;99.90;;;14.32;93.26;100243.94;4945356;29;20043;-78
2024/04/05 02:58:54;;;;;;;17.17;2.75;;;10.50;99.90;;;14.21;93.07;100254.78;4932800;29;20039;-76
2024/04/05 03:01:20;;;;;;;19.63;2.90;;;10.60;99.90;;;14.02;94.07;100245.13;4925948;29;20050;-78
2024/04/05 03:03:47;;;;;;;17.45;2.72;;;10.60;99.90;;;14.26;91.98;100254.03;4935915;29;20048;-77
2024/04/05 03:06:13;;;;;;;20.25;3.97;;;10.50;99.90;;;14.29;91.89;100252.69;4933542;29;20076;-77
2024/04/05 03:08:38;;;;;;;15.43;2.67;;;10.50;99.90;;;14.30;91.68;100243.38;4926534;29;20043;-77
2024/04/05 03:11:04;;;;;;;12.88;3.00;;;10.40;99.90;;;14.00;94.45;100241.81;4926949;29;20530;-77
2024/04/05 03:13:30;;;;;;;14.00;3.08;;;10.40;99.90;;;13.89;95.02;100249.03;4923544;29;20067;-77
2024/04/05 03:15:55;;;;;;;14.98;2.60;;;10.30;99.90;;;14.06;93.78;100249.88;4938944;28;20044;-76
2024/04/05 03:18:21;;;;;;;17.17;2.47;;;10.40;99.90;;;14.19;92.88;100251.47;4929518;29;20441;-77
2024/04/05 03:20:47;;;;;;;17.40;2.95;;;10.40;99.90;;;14.25;91.87;100257.84;4889669;29;20032;-76
2024/04/05 03:23:12;;;;;;;17.77;2.92;;;10.40;99.90;;;14.34;92.27;100258.28;4928089;29;20048;-76
2024/04/05 03:25:38;;;;;;;15.90;3.00;;;10.40;99.90;;;13.97;93.40;100264.25;4925936;29;20043;-75
2024/04/05 03:28:04;;;;;;;16.17;2.55;;;10.30;99.90;;;13.84;94.46;100249.81;4923683;29;20083;-77
2024/04/05 03:30:30;;;;;;;17.38;3.00;;;10.30;99.90;;;13.73;95.22;100253.44;4927431;29;20103;-76
2024/04/05 03:32:56;;;;;;;13.60;2.70;;;10.30;99.90;;;14.17;96.01;100270.06;4933150;29;20043;-76
2024/04/05 03:35:23;;;;;;;15.07;2.80;;;10.30;99.90;;;14.44;91.36;100260.31;4928730;29;20123;-75
2024/04/05 03:37:55;;;;;;;13.75;2.47;;;10.20;99.90;;;14.45;91.85;100267.47;4931714;29;20051;-77
2024/04/05 03:40:22;;;;;;;13.75;2.58;;;10.30;99.90;;;13.92;94.31;100263.09;4929965;29;20126;-76
2024/04/05 03:42:48;;;;;;;20.10;3.55;;;10.30;99.90;;;13.64;97.07;100256.59;4939618;28;20169;-78
2024/04/05 03:45:15;;;;;;;16.73;3.40;;;10.30;99.90;;;14.05;96.38;100261.94;4920543;29;20036;-77
2024/04/05 03:47:42;;;;;;;17.13;2.85;;;10.30;99.90;;;14.27;93.63;100263.06;4917131;29;20035;-75
2024/04/05 03:50:08;;;;;;;15.07;2.65;;;10.30;99.90;;;14.32;91.66;100252.16;4918417;29;20118;-77
2024/04/05 03:52:34;;;;;;;15.63;2.60;;;10.40;99.90;;;14.45;91.16;100260.06;4914217;29;20047;-76
2024/04/05 03:55:00;;;;;;;11.88;2.53;;;10.40;99.90;;;14.60;90.63;100266.88;4908216;29;20051;-77
2024/04/05 03:57:25;;;;;;;15.27;2.75;;;10.50;99.90;;;14.67;89.85;100273.00;4899201;29;20036;-77
2024/04/05 03:59:51;;;;;;;19.38;2.63;;;10.60;99.90;;;14.68;88.94;100266.44;4930858;29;20044;-77
2024/04/05 04:02:17;;;;;;;20.40;4.07;;;10.60;99.90;;;14.72;89.37;100270.34;4897443;29;20044;-77
2024/04/05 04:04:43;;;;;;;21.13;2.83;;;10.60;99.90;;;14.64;89.43;100277.06;4911997;29;20044;-76
2024/04/05 04:07:09;;;;;;;14.80;2.75;;;10.70;99.90;;;14.72;89.36;100280.50;4917723;29;20036;-77
2024/04/05 04:09:36;;;;;;;18.10;2.92;;;10.70;99.90;;;14.62;89.32;100278.44;4928399;29;20076;-76
2024/04/05 04:12:03;;;;;;;17.05;2.85;;;10.80;99.90;;;14.81;89.26;100277.06;4909014;29;20400;-77
2024/04/05 04:14:29;;;;;;;14.20;2.78;;;10.90;99.90;;;14.91;87.29;100289.28;4917479;29;20075;-77
2024/04/05 04:16:54;;;;;;;14.65;2.63;;;11.00;99.90;;;15.02;87.40;100280.06;4921083;29;20045;-77
2024/04/05 04:19:21;;;;;;;15.93;2.65;;;11.00;99.90;;;15.00;87.20;100279.50;4944684;28;20031;-77
2024/04/05 04:21:47;;;;;;;19.75;3.10;;;11.10;99.90;;;15.14;87.08;100292.88;4922782;29;20046;-77
2024/04/05 04:24:14;;;;;;;18.10;2.80;;;11.10;99.90;;;15.11;85.46;100283.22;4925756;29;20060;-77
2024/04/05 04:26:40;;;;;;;19.00;2.75;;;11.20;99.90;;;14.95;85.50;100290.44;4924937;29;20058;-76
2024/04/05 04:29:05;;;;;;;17.05;2.22;;;11.30;99.90;;;14.92;86.75;100296.44;4918419;29;20044;-77
2024/04/05 04:31:31;;;;;;;16.88;3.05;;;11.30;99.90;;;15.32;85.52;100288.94;4917074;29;20051;-76
2024/04/05 04:33:57;;;;;;;16.15;2.42;;;11.30;99.90;;;15.38;83.75;100296.16;4917695;29;20032;-75
2024/04/05 04:36:24;;;;;;;14.55;2.63;;;11.40;99.90;;;15.36;83.87;100285.41;4923570;29;20052;-77
2024/04/05 04:38:51;;;;;;;17.92;2.75;;;11.30;99.90;;;15.18;84.35;100300.31;4914517;29;20527;-75
2024/04/05 04:41:17;;;;;;;14.90;2.72;;;11.30;99.90;;;15.62;82.48;100295.88;4916144;29;20408;-76
2024/04/05 04:43:43;;;;;;;14.82;3.20;;;11.30;99.90;;;15.52;81.86;100286.44;4926687;29;20189;-76
2024/04/05 04:46:11;;;;;;;17.45;3.22;;;11.30;99.90;;;15.90;80.32;100297.53;4923128;29;20040;-76
2024/04/05 04:48:37;;;;;;;23.07;3.43;;;11.30;99.90;;;15.84;80.08;100304.03;4912121;29;20040;-77
2024/04/05 04:51:04;;;;;;;23.63;3.50;;;11.30;99.90;;;15.65;80.63;100298.94;4920567;29;20378;-78
2024/04/05 04:53:30;;;;;;;18.13;3.53;;;11.30;99.90;;;15.72;81.21;100306.94;4915046;29;20050;-78
2024/04/05 04:55:56;;;;;;;18.27;3.63;;;11.30;99.90;;;15.89;79.68;100306.88;4920058;29;20040;-76
2024/04/05 04:58:23;;;;;;;21.77;3.38;;;11.30;99.90;;;15.85;80.15;100319.47;4922843;29;20392;-77
2024/04/05 05:00:49;;;;;;;16.43;3.73;;;11.30;99.90;;;16.09;79.02;100305.41;4928424;29;20079;-76
2024/04/05 05:03:16;;;;;;;18.58;3.60;;;11.40;99.90;;;16.14;78.10;100283.41;4917145;29;20119;-75
2024/04/05 05:05:42;;;;;;;18.75;3.50;;;11.40;99.90;;;15.93;77.65;100275.03;4913215;29;20039;-76
2024/04/05 05:08:11;;;;;;;14.82;3.05;;;11.40;99.90;;;15.56;80.07;100292.22;4918229;29;20048;-75
2024/04/05 05:10:38;;;;;;;11.48;2.47;;;11.50;99.90;;;15.74;80.36;100306.72;4929502;29;20085;-75
2024/04/05 05:13:05;;;;;;;16.13;3.10;;;11.50;99.90;;;15.59;81.48;100301.88;4920599;29;20043;-76
2024/04/05 05:15:32;;;;;;;16.50;2.38;;;11.50;99.90;;;15.63;81.88;100292.84;4920747;29;20047;-75
2024/04/05 05:17:58;;;;;;;16.77;2.45;;;11.50;99.90;;;15.20;85.96;100297.31;4919794;29;20480;-75
2024/04/05 05:20:26;;;;;;;13.65;2.60;;;11.40;99.90;;;15.10;88.49;100307.09;4914007;29;20036;-75
2024/04/05 05:22:53;;;;;;;15.05;3.20;;;11.40;99.90;;;14.96;91.46;100303.88;4914518;29;20040;-76
2024/04/05 05:25:19;;;;;;;13.60;2.60;;;11.30;99.90;;;14.74;92.05;100309.38;4903267;29;20040;-77
2024/04/05 05:27:46;;;;;;;14.35;2.90;;;11.30;99.90;;;14.95;90.68;100304.16;4902762;29;20350;-75
2024/04/05 05:30:12;;;;;;;15.20;2.63;;;11.30;99.90;;;15.68;86.92;100309.41;4914324;29;20130;-75
2024/04/05 05:32:38;;;;;;;11.60;2.08;;;11.30;99.90;;;15.80;84.71;100306.50;4912286;29;20167;-75
2024/04/05 05:35:07;;;;;;;12.48;2.90;;;11.40;99.90;;;15.44;83.62;100297.88;4909518;29;20065;-75
2024/04/05 05:37:33;;;;;;;13.02;3.15;;;11.50;99.90;;;15.51;86.16;100309.47;4913813;29;20036;-75
2024/04/05 05:39:59;;;;;;;12.73;2.40;;;11.60;99.90;;;15.42;85.63;100310.22;4910375;29;20511;-75
2024/04/05 05:42:27;;;;;;;10.55;2.58;;;11.70;99.90;;;15.40;85.68;100304.97;4926572;29;20076;-74
2024/04/05 05:44:54;;;;;;;16.27;2.97;;;11.80;99.90;;;15.75;84.89;100322.94;4921388;29;20042;-74
2024/04/05 05:47:20;;;;;;;15.05;3.15;;;11.80;99.90;;;15.59;85.61;100315.63;4908778;29;20476;-74
2024/04/05 05:49:49;;;;;;;13.48;2.70;;;;;;;15.69;85.03;100321.22;4909560;29;20035;-75
2024/04/05 05:52:16;;;;;;;14.73;2.47;;;11.90;99.90;;;15.81;84.54;100321.06;4912470;29;20036;-78
2024/04/05 05:54:41;;;;;;;11.27;2.03;;;12.00;99.90;;;15.83;83.97;100327.13;4919196;29;20076;-75
2024/04/05 05:57:07;;;;;;;14.30;2.75;;;12.00;99.90;;;15.96;84.51;100329.50;4918785;29;20059;-75
2024/04/05 05:59:33;;;;;;;13.65;3.17;;;12.00;99.90;;;15.88;84.08;100323.63;4912653;29;20669;-75
2024/04/05 06:01:58;;;;;;;14.45;2.40;;;12.10;99.90;;;16.03;83.33;100311.94;4941067;29;20039;-76
2024/04/05 06:04:25;;;;;;;11.32;2.33;;;12.10;99.90;;;16.23;82.33;100309.38;4920423;29;20493;-75
2024/04/05 06:06:54;;;;;;;15.73;2.33;;;12.20;99.90;;;16.18;81.82;100306.59;4914967;29;20083;-75
2024/04/05 06:09:20;;;;;;;14.88;3.33;;;12.20;99.90;;;16.05;83.22;100307.03;4921243;29;20150;-75
2024/04/05 06:11:47;;;;;;;13.13;2.10;;;;;;;16.24;82.56;100319.28;4901747;29;20068;-75
2024/04/05 06:14:14;;;;;;;13.13;2.33;;;12.40;99.90;;;15.96;84.92;100326.75;4915483;29;20047;-75
2024/04/05 06:16:39;;;;;;;9.88;2.22;;;12.30;99.90;;;16.00;85.88;100312.47;4929826;29;20096;-78
2024/04/05 06:19:05;;;;;;;11.50;2.00;;;12.30;99.90;;;16.25;85.13;100323.69;4915748;29;20036;-74
2024/04/05 06:21:31;;;;;;;10.18;2.13;;;12.30;99.90;;;16.25;86.32;100320.09;4912675;29;20036;-76
2024/04/05 06:24:00;;;;;;;10.90;1.98;;;12.30;99.90;;;16.45;84.79;100315.84;4914132;29;20428;-75
2024/04/05 06:26:26;;;;;;;11.70;3.05;;;12.40;99.90;;;16.61;82.08;100316.78;4922136;29;20296;-74
2024/04/05 06:28:52;;;;;;;10.77;2.50;;;12.50;99.90;;;16.62;84.60;100330.31;4936597;29;20039;-76
2024/04/05 06:31:18;;;;;;;12.68;2.17;;;12.50;99.90;;;16.66;84.15;100328.69;4911114;29;20040;-75
2024/04/05 06:33:44;;;;;;;13.77;2.75;;;12.60;99.90;;;16.19;86.15;100340.44;4912285;29;20107;-75
2024/04/05 06:36:10;;;;;;;8.38;1.98;;;12.60;99.90;;;16.65;84.49;100342.69;4920350;29;20054;-75
2024/04/05 06:38:37;;;;;;;13.68;2.33;;;;;;;17.02;83.09;100347.38;4919125;29;20044;-75
2024/04/05 06:41:04;;;;;;;11.23;2.70;;;;;;;17.18;82.11;100356.56;4918011;29;20435;-76
2024/04/05 06:43:31;;;;;;;18.02;3.63;;;12.60;99.90;;;17.26;81.39;100352.47;4920772;29;20111;-76
2024/04/05 06:45:59;;;;;;;12.40;2.58;;;;;;;17.14;80.52;100343.56;4920574;29;20150;-75
2024/04/05 06:48:26;;;;;;;13.98;3.20;;;;;;;17.69;79.27;100344.03;4915857;29;20067;-74
2024/04/05 06:50:52;;;;;;;12.00;2.28;;;;;;;17.78;78.28;100347.09;4933525;29;20559;-75
2024/04/05 06:53:24;;;;;;;10.68;2.42;;;;;;;17.85;76.77;100355.09;4919056;29;20096;-76
2024/04/05 06:55:51;;;;;;;13.98;3.20;;;;;;;17.80;75.96;100336.63;4916811;29;20473;-75
2024/04/05 06:58:18;;;;;;;12.93;2.45;;;;;;;17.77;78.27;100350.94;4919247;29;20123;-75
2024/04/05 07:00:45;;;;;;;12.43;2.70;;;;;;;17.61;78.51;100339.03;4912948;29;20144;-75
2024/04/05 07:03:12;;;;;;;9.18;2.10;;;;;;;17.88;78.85;100344.34;4924254;29;20369;-76
2024/04/05 07:05:39;;;;;;;11.82;2.40;;;;;;;17.81;79.50;100341.03;4914685;29;20491;-74
2024/04/05 07:08:06;;;;;;;13.52;2.88;;;12.90;99.90;;;17.96;80.06;100345.75;4914704;29;20119;-76
2024/04/05 07:10:33;;;;;;;12.75;2.33;;;;;;;18.02;80.83;100352.13;4910960;29;20493;-77
2024/04/05 07:12:59;;;;;;;13.33;3.37;;;13.80;99.90;;;18.03;80.45;100359.28;4913206;29;20047;-75
2024/04/05 07:15:26;;;;;;;12.65;2.33;;;14.00;99.90;;;17.68;82.70;100347.91;4911040;29;20040;-75
2024/04/05 07:17:54;;;;;;;10.48;2.58;;;;;;;18.01;81.58;100361.47;4913973;29;20113;-75
2024/04/05 07:20:25;;;;;;;11.10;2.97;;;;;;;17.94;84.58;100364.53;4912509;29;20040;-76
2024/04/05 07:22:55;;;;;;;10.63;2.42;;;;;;;18.15;80.47;100348.84;4913303;29;20044;-74
2024/04/05 07:25:22;;;;;;;10.00;3.15;;;;;;;17.95;82.04;100353.19;4916015;29;20054;-74
2024/04/05 07:27:54;;;;;;;14.73;2.70;;;14.00;99.90;;;17.83;83.38;100363.66;4922530;29;20043;-75
2024/04/05 07:30:22;;;;;;;11.82;2.85;;;14.20;99.90;;;17.75;83.67;100364.19;4914090;29;20032;-74
2024/04/05 07:32:50;;;;;;;9.13;2.50;;;14.20;99.90;;;17.67;84.43;100363.63;4913285;29;20148;-74
2024/04/05 07:35:16;;;;;;;;;;;14.10;99.90;;;18.07;83.13;100349.38;4918394;29;20044;-75
2024/04/05 07:37:46;;;;;;;9.25;2.30;;;14.20;99.90;;;17.93;84.36;100343.53;4916661;29;19946;-74
2024/04/05 07:40:18;;;;;;;9.80;2.08;;;14.20;99.90;;;18.17;82.80;100357.66;4935697;29;20082;-74
2024/04/05 07:42:54;;;;;;;11.70;2.40;;;;;;;18.39;82.26;100360.16;4920583;29;20167;-74
2024/04/05 07:45:22;;;;;;;12.43;2.45;;;;;;;18.53;82.14;100359.59;4907658;29;20551;-75
2024/04/05 07:47:49;;;;;;;9.70;2.15;;;14.30;99.90;;;18.02;84.64;100361.25;4914296;29;20040;-74
2024/04/05 07:50:22;;;;;;;12.38;2.60;;;14.60;99.90;;;18.05;86.39;100359.88;4921278;29;20047;-75
2024/04/05 07:52:54;;;;;;;8.32;2.20;;;14.60;99.90;;;17.68;90.29;100357.00;4923815;29;20044;-75
2024/04/05 07:55:20;;;;;;;11.20;2.33;;;14.50;99.90;;;17.50;93.13;100363.00;4911900;29;20028;-75
2024/04/05 07:57:47;;;;;;;13.15;2.53;;;14.30;99.90;;;16.89;100.00;100336.78;4916543;29;20067;-77
2024/04/05 08:00:14;;;;;;;9.85;2.10;;;14.00;99.90;;;16.27;100.00;100339.13;4919830;29;20168;-76
2024/04/05 08:02:46;;;;;;;13.13;2.88;;;13.70;99.90;;;16.12;100.00;100351.66;4915940;29;20060;-75
2024/04/05 08:05:12;;;;;;;10.07;2.53;;;13.40;99.90;;;15.99;100.00;100354.84;4918693;29;20444;-76
2024/04/05 08:07:38;;;;;;;10.60;2.50;;;13.20;99.90;;;16.12;100.00;100342.56;4906811;29;20127;-75
2024/04/05 08:10:04;;;;;;;9.43;2.30;;;13.10;99.90;;;16.34;100.00;100365.34;4917547;29;20040;-75
2024/04/05 08:12:30;;;;;;;12.02;2.85;;;13.20;99.90;;;16.51;100.00;100369.88;4914868;29;20044;-76
2024/04/05 08:14:55;;;;;;;10.52;2.63;;;13.20;99.90;;;16.54;100.00;100359.16;4913453;29;20036;-76
2024/04/05 08:17:21;;;;;;;12.10;2.20;;;13.30;99.90;;;16.75;100.00;100370.31;4911716;29;20443;-76
2024/04/05 08:19:50;;;;;;;10.13;2.40;;;13.40;99.90;;;16.94;100.00;100350.59;4912058;29;20064;-75
2024/04/05 08:22:16;;;;;;;8.93;2.15;;;13.60;99.90;;;16.67;100.00;100362.53;4912927;29;20159;-76
2024/04/05 08:24:42;;;;;;;9.05;2.53;;;13.70;99.90;;;16.76;100.00;100352.72;4912269;29;20068;-76
2024/04/05 08:27:08;;;;;;;8.48;2.20;;;13.90;99.90;;;16.91;100.00;100337.34;4923054;29;20039;-76
2024/04/05 08:29:35;;;;;;;8.82;2.08;;;14.00;99.90;;;17.02;100.00;100330.84;4932593;29;20032;-76
2024/04/05 08:32:00;;;;;;;12.05;2.22;;;14.30;99.90;;;17.39;100.00;100334.59;4924521;29;20106;-76
2024/04/05 08:34:27;;;;;;;9.93;2.38;;;;;;;17.54;100.00;100320.81;4924334;29;20059;-76
2024/04/05 08:36:53;;;;;;;10.57;2.08;;;14.40;99.90;;;17.67;100.00;100297.41;4915634;29;20750;-78
2024/04/05 08:39:18;;;;;;;9.50;1.98;;;14.80;99.90;;;17.63;100.00;100304.59;4931832;29;20039;-76
2024/04/05 08:41:48;;;;;;;7.82;1.95;;;14.80;99.90;;;17.37;100.00;100321.06;4917462;29;20060;-76
2024/04/05 08:44:17;;;;;;;8.75;2.03;;;14.70;99.90;;;17.07;100.00;100319.00;4920337;29;20047;-76
2024/04/05 08:46:44;;;;;;;8.35;2.00;;;14.50;99.90;;;17.20;100.00;100318.53;4913460;29;20032;-76
2024/04/05 08:49:11;;;;;;;9.98;2.40;;;14.50;99.90;;;17.20;100.00;100298.38;4915430;29;20040;-75
2024/04/05 08:51:40;;;;;;;8.17;2.10;;;14.40;99.90;;;17.52;100.00;100300.16;4921272;29;20032;-76
2024/04/05 08:54:09;;;;;;;7.43;1.92;;;14.60;99.90;;;17.62;100.00;100286.38;4920576;29;20047;-75
2024/04/05 08:56:35;;;;;;;8.23;2.40;;;14.80;99.90;;;17.55;100.00;100280.31;4916860;29;20046;-76
2024/04/05 08:59:03;;;;;;;10.00;1.80;;;14.80;99.90;;;17.85;100.00;100292.47;4918011;29;20028;-76
2024/04/05 09:01:29;;;;;;;13.23;2.30;;;15.00;99.90;;;17.78;100.00;100291.94;4914928;29;20493;-75
2024/04/05 09:03:55;;;;;;;10.13;1.92;;;15.20;99.90;;;18.07;100.00;100283.97;4915091;29;20046;-76
2024/04/05 09:06:21;;;;;;;9.48;2.25;;;15.10;99.90;;;18.30;100.00;100272.63;4916260;29;20036;-77
2024/04/05 09:08:52;;;;;;;8.50;2.10;;;15.10;99.90;;;18.62;95.98;100293.56;4922486;29;20044;-78
2024/04/05 09:11:22;;;;;;;6.95;1.90;;;15.40;99.90;;;18.18;99.24;100282.03;4919260;29;20039;-76
2024/04/05 09:14:15;;;;;;;8.63;2.10;;;15.60;99.90;;;18.02;100.00;100269.31;4925514;29;20139;-78
2024/04/05 09:16:42;;;;;;;5.57;1.73;;;15.50;99.90;;;17.91;100.00;100269.31;4924865;29;20055;-76
2024/04/05 09:19:08;;;;;;;11.30;1.92;;;15.40;99.90;;;18.10;100.00;100266.84;4925747;29;20032;-76
2024/04/05 09:21:35;;;;;;;11.63;2.00;;;15.40;99.90;;;18.59;100.00;100261.00;4920970;29;20043;-76
2024/04/05 09:24:07;;;;;;;9.20;2.28;;;15.70;99.90;;;18.09;100.00;100250.56;4928253;29;20035;-75
2024/04/05 09:26:34;;;;;;;8.32;1.80;;;15.70;99.90;;;17.93;100.00;100256.06;4923192;29;20048;-76
2024/04/05 09:29:07;;;;;;;9.73;1.83;;;15.50;99.90;;;17.86;100.00;100250.00;4917478;29;20036;-76
2024/04/05 09:31:35;;;;;;;5.38;1.80;;;15.40;99.90;;;17.98;100.00;100230.41;4938129;29;20067;-76
2024/04/05 09:34:16;;;;;;;8.68;2.00;;;;;;;18.90;100.00;100234.06;4918379;29;20776;-76
2024/04/05 09:36:42;;;;;;;5.93;1.63;;;;;;;18.72;98.21;100230.00;4922162;29;20075;-76
2024/04/05 09:39:18;;;;;;;6.55;1.77;;;16.30;99.90;;;18.80;100.00;100251.50;4907659;29;20123;-76
2024/04/05 09:41:45;;;;;;;5.55;1.60;;;16.20;99.90;;;19.01;100.00;100243.16;4912169;29;20052;-76
2024/04/05 09:44:12;;;;;;;9.10;2.05;;;16.10;99.90;;;18.99;99.27;100242.63;4892928;29;20397;-76
2024/04/05 09:46:38;;;;;;;8.20;2.00;;;16.10;99.90;;;18.85;100.00;100236.84;4908870;29;20046;-76
2024/04/05 09:49:05;;;;;;;8.82;2.10;;;16.20;99.90;;;19.31;96.30;100238.59;4906613;29;20048;-77
2024/04/05 09:51:44;;;;;;;7.32;2.03;;;16.40;99.90;;;19.28;92.68;100225.34;4891336;29;20408;-76
2024/04/05 09:54:17;;;;;;;5.82;1.80;;;;;;;19.27;91.15;100237.50;4919763;29;20051;-75
2024/04/05 09:56:45;;;;;;;8.52;1.80;;;;;;;19.40;90.80;100228.59;4909323;29;20046;-76
2024/04/05 09:59:26;;;;;;;6.72;1.70;;;;;;;19.60;90.98;100234.25;4902347;29;20166;-76
2024/04/05 10:01:56;;;;;;;6.05;1.77;;;16.60;99.90;;;20.06;86.32;100205.41;4899762;29;20051;-75
2024/04/05 10:04:23;;;;;;;6.47;1.80;;;17.20;99.90;;;19.88;86.75;100191.13;4903398;29;20044;-76
2024/04/05 10:06:49;;;;;;;5.63;1.40;;;17.20;99.90;;;19.44;89.51;100186.53;4910206;29;20139;-76
2024/04/05 10:09:21;;;;;;;4.88;1.17;;;17.00;99.90;;;19.36;85.41;100172.22;4911222;29;20052;-76
2024/04/05 10:11:48;;;;;;;6.53;1.67;;;16.80;99.90;;;19.52;85.64;100169.31;4904510;29;20041;-76
2024/04/05 10:14:26;;;;;;;5.70;1.50;;;16.80;99.90;;;19.38;87.46;100178.28;4910472;29;20043;-75